createdAt,value
2018-11-27T00:01:21.440Z,29.35
2018-11-27T00:03:48.083Z,29.35
2018-11-27T00:06:14.734Z,29.32
2018-11-27T00:08:41.432Z,29.29
2018-11-27T00:11:08.107Z,29.34
2018-11-27T00:13:34.739Z,29.32
2018-11-27T00:16:01.374Z,29.31
2018-11-27T00:18:28.017Z,29.44
2018-11-27T00:20:54.656Z,29.44
2018-11-27T00:23:21.297Z,29.38
2018-11-27T00:25:47.934Z,29.34
2018-11-27T00:28:14.578Z,29.32
2018-11-27T00:30:41.239Z,29.42
2018-11-27T00:33:07.893Z,29.39
2018-11-27T00:35:34.529Z,29.46
2018-11-27T00:38:01.165Z,29.52
2018-11-27T00:40:27.823Z,29.56
2018-11-27T00:42:54.495Z,29.53
2018-11-27T00:45:21.134Z,29.47
2018-11-27T00:47:47.776Z,29.47
2018-11-27T00:50:14.484Z,29.52
2018-11-27T00:52:41.116Z,29.45
2018-11-27T00:55:07.785Z,29.48
2018-11-27T00:57:34.427Z,29.45
2018-11-27T01:00:01.081Z,29.50
2018-11-27T01:02:27.718Z,29.54
2018-11-27T01:04:55.867Z,29.51
2018-11-27T01:07:21.070Z,29.65
2018-11-27T01:09:47.961Z,29.64
2018-11-27T01:12:14.576Z,29.58
2018-11-27T01:14:41.213Z,29.65
2018-11-27T01:17:07.866Z,29.64
2018-11-27T01:19:34.516Z,29.67
2018-11-27T01:22:01.159Z,29.67
2018-11-27T01:24:27.806Z,29.60
2018-11-27T01:26:54.534Z,29.68
2018-11-27T01:29:21.195Z,29.70
2018-11-27T01:31:47.842Z,29.71
2018-11-27T01:34:14.489Z,29.73
2018-11-27T01:36:41.141Z,29.83
2018-11-27T01:39:07.810Z,29.75
2018-11-27T01:41:34.448Z,29.74
2018-11-27T01:44:01.099Z,29.75
2018-11-27T01:46:27.751Z,29.80
2018-11-27T01:48:54.404Z,29.76
2018-11-27T01:51:21.049Z,29.87
2018-11-27T01:53:47.699Z,29.88
2018-11-27T01:56:14.340Z,29.87
2018-11-27T01:58:40.997Z,29.88
2018-11-27T02:01:07.699Z,29.83
2018-11-27T02:03:34.293Z,29.87
2018-11-27T02:06:00.935Z,29.84
2018-11-27T02:08:27.622Z,29.87
2018-11-27T02:10:54.272Z,29.90
2018-11-27T02:13:20.968Z,29.94
2018-11-27T02:15:47.618Z,29.92
2018-11-27T02:18:14.257Z,29.95
2018-11-27T02:20:40.912Z,30.02
2018-11-27T02:23:07.637Z,29.97
2018-11-27T02:25:34.340Z,30.03
2018-11-27T02:28:00.976Z,29.99
2018-11-27T02:30:27.615Z,30.00
2018-11-27T02:32:54.261Z,30.06
2018-11-27T02:35:20.915Z,30.02
2018-11-27T02:37:47.565Z,30.08
2018-11-27T02:40:14.213Z,30.09
2018-11-27T02:42:40.865Z,30.11
2018-11-27T02:45:07.570Z,30.09
2018-11-27T02:47:34.210Z,30.03
2018-11-27T02:50:00.862Z,30.10
2018-11-27T02:52:27.505Z,30.11
2018-11-27T02:54:54.148Z,30.19
2018-11-27T02:57:20.799Z,30.14
2018-11-27T02:59:47.487Z,30.14
2018-11-27T03:02:14.133Z,30.17
2018-11-27T03:04:40.828Z,30.16
2018-11-27T03:07:07.456Z,30.16
2018-11-27T03:09:34.119Z,30.11
2018-11-27T03:12:00.762Z,30.11
2018-11-27T03:14:27.423Z,30.19
2018-11-27T03:16:54.123Z,30.17
2018-11-27T03:19:20.775Z,30.18
2018-11-27T03:21:47.409Z,30.21
2018-11-27T03:24:14.055Z,30.19
2018-11-27T03:26:40.699Z,30.24
2018-11-27T03:29:07.433Z,30.17
2018-11-27T03:31:34.074Z,30.11
2018-11-27T03:34:00.726Z,30.20
2018-11-27T03:36:27.376Z,30.30
2018-11-27T03:38:54.037Z,30.21
2018-11-27T03:41:20.688Z,30.14
2018-11-27T03:43:47.334Z,30.18
2018-11-27T03:46:14.019Z,30.17
2018-11-27T03:48:40.663Z,30.22
2018-11-27T03:51:07.307Z,30.15
2018-11-27T03:53:33.987Z,30.08
2018-11-27T03:56:00.616Z,30.11
2018-11-27T03:58:27.312Z,30.23
2018-11-27T04:00:53.963Z,30.17
2018-11-27T04:03:20.606Z,30.13
2018-11-27T04:05:47.258Z,30.33
2018-11-27T04:08:13.897Z,30.21
2018-11-27T04:10:40.540Z,31.02
2018-11-27T04:13:07.178Z,31.21
2018-11-27T04:15:33.833Z,31.80
2018-11-27T04:18:00.489Z,32.16
2018-11-27T04:20:27.134Z,31.75
2018-11-27T04:22:53.772Z,31.27
2018-11-27T04:25:20.429Z,31.11
2018-11-27T04:27:47.067Z,31.46
2018-11-27T04:30:13.809Z,31.21
2018-11-27T04:32:40.407Z,31.49
2018-11-27T04:35:07.101Z,31.28
2018-11-27T04:37:33.738Z,31.09
2018-11-27T04:40:00.382Z,30.64
2018-11-27T04:42:27.029Z,30.57
2018-11-27T04:44:53.715Z,30.51
2018-11-27T04:47:20.365Z,30.44
2018-11-27T04:49:47.011Z,30.39
2018-11-27T04:52:13.710Z,30.33
2018-11-27T04:54:40.353Z,30.48
2018-11-27T04:57:07.017Z,30.47
2018-11-27T04:59:33.647Z,30.61
2018-11-27T05:02:00.546Z,30.68
2018-11-27T05:04:27.193Z,30.70
2018-11-27T05:06:53.845Z,30.57
2018-11-27T05:09:20.501Z,30.60
2018-11-27T05:11:47.150Z,30.54
2018-11-27T05:14:13.790Z,30.74
2018-11-27T05:16:40.440Z,30.73
2018-11-27T05:19:07.105Z,30.74
2018-11-27T05:21:33.741Z,30.80
2018-11-27T05:24:00.442Z,30.89
2018-11-27T05:26:27.079Z,31.02
2018-11-27T05:28:53.790Z,31.12
2018-11-27T05:31:20.454Z,31.07
2018-11-27T05:33:47.113Z,31.10
2018-11-27T05:36:13.804Z,31.08
2018-11-27T05:38:40.449Z,31.20
2018-11-27T05:41:07.087Z,31.17
2018-11-27T05:43:33.738Z,31.12
2018-11-27T05:46:00.391Z,31.12
2018-11-27T05:48:27.045Z,31.28
2018-11-27T05:50:53.690Z,30.89
2018-11-27T05:53:20.333Z,30.97
2018-11-27T05:55:46.983Z,31.02
2018-11-27T05:58:13.636Z,30.82
2018-11-27T06:00:40.330Z,30.69
2018-11-27T06:03:06.974Z,30.77
2018-11-27T06:05:33.635Z,30.73
2018-11-27T06:08:00.327Z,30.63
2018-11-27T06:10:26.975Z,30.58
2018-11-27T06:12:53.632Z,30.71
2018-11-27T06:15:20.271Z,30.56
2018-11-27T06:17:46.922Z,30.61
2018-11-27T06:20:13.555Z,30.54
2018-11-27T06:22:40.262Z,30.52
2018-11-27T06:25:06.907Z,30.46
2018-11-27T06:27:33.560Z,30.62
2018-11-27T06:30:00.221Z,30.60
2018-11-27T06:32:27.019Z,30.48
2018-11-27T06:34:53.668Z,30.44
2018-11-27T06:37:20.373Z,30.52
2018-11-27T06:39:47.044Z,30.50
2018-11-27T06:42:13.718Z,30.93
2018-11-27T06:44:40.429Z,31.20
2018-11-27T06:47:07.099Z,31.14
2018-11-27T06:49:33.793Z,31.14
2018-11-27T06:52:00.446Z,30.88
2018-11-27T06:54:27.200Z,30.80
2018-11-27T06:56:53.851Z,30.84
2018-11-27T06:59:20.515Z,30.73
2018-11-27T07:01:47.172Z,31.05
2018-11-27T07:04:13.814Z,30.99
2018-11-27T07:06:40.465Z,30.88
2018-11-27T07:09:07.116Z,30.96
2018-11-27T07:11:33.811Z,30.97
2018-11-27T07:14:01.688Z,30.76
2018-11-27T07:16:27.156Z,30.70
2018-11-27T07:18:53.882Z,30.55
2018-11-27T07:21:20.586Z,30.75
2018-11-27T07:23:47.238Z,30.79
2018-11-27T07:26:13.964Z,30.69
2018-11-27T07:28:41.276Z,30.67
2018-11-27T07:31:08.023Z,30.72
2018-11-27T07:33:34.668Z,30.71
2018-11-27T07:36:01.318Z,30.70
2018-11-27T07:38:28.075Z,30.73
2018-11-27T07:40:54.751Z,30.62
2018-11-27T07:43:21.928Z,30.58
2018-11-27T07:45:48.599Z,30.66
2018-11-27T07:48:15.279Z,30.72
2018-11-27T07:50:41.931Z,30.67
2018-11-27T07:53:08.636Z,30.65
2018-11-27T07:55:35.300Z,30.46
2018-11-27T07:58:01.981Z,30.31
2018-11-27T08:00:28.773Z,30.30
2018-11-27T08:02:55.420Z,30.69
2018-11-27T08:05:22.061Z,30.64
2018-11-27T08:07:48.711Z,30.67
2018-11-27T08:10:15.344Z,30.72
2018-11-27T08:12:42.118Z,30.68
2018-11-27T08:15:08.824Z,30.65
2018-11-27T08:17:35.565Z,30.91
2018-11-27T08:20:02.261Z,31.03
2018-11-27T08:22:29.205Z,31.08
2018-11-27T08:24:55.862Z,31.15
2018-11-27T08:27:22.531Z,31.20
2018-11-27T08:29:49.223Z,30.97
2018-11-27T08:32:15.865Z,30.92
2018-11-27T08:34:42.575Z,31.23
2018-11-27T08:37:09.234Z,31.17
2018-11-27T08:39:35.902Z,31.44
2018-11-27T08:42:06.073Z,31.58
2018-11-27T08:44:32.710Z,31.43
2018-11-27T08:46:59.372Z,31.57
2018-11-27T08:49:26.015Z,31.63
2018-11-27T08:51:52.719Z,31.34
2018-11-27T08:54:19.359Z,31.72
2018-11-27T08:56:46.025Z,31.62
2018-11-27T08:59:12.819Z,31.50
2018-11-27T09:01:39.494Z,31.92
2018-11-27T09:04:06.796Z,31.91
2018-11-27T09:06:33.444Z,31.62
2018-11-27T09:09:00.132Z,31.49
2018-11-27T09:11:26.779Z,31.50
2018-11-27T09:13:53.497Z,31.87
2018-11-27T09:16:20.201Z,31.96
2018-11-27T09:18:46.855Z,31.87
2018-11-27T09:21:13.542Z,31.87
2018-11-27T09:23:40.202Z,31.37
2018-11-27T09:26:06.980Z,31.59
2018-11-27T09:28:33.622Z,30.87
2018-11-27T09:31:00.303Z,31.55
2018-11-27T09:33:26.942Z,31.56
2018-11-27T09:35:53.590Z,31.52
2018-11-27T09:38:20.249Z,31.51
2018-11-27T09:40:46.930Z,31.54
2018-11-27T09:43:13.572Z,31.41
2018-11-27T09:45:40.226Z,31.25
2018-11-27T09:48:06.885Z,31.27
2018-11-27T09:50:33.553Z,31.48
2018-11-27T09:53:00.247Z,31.30
2018-11-27T09:55:26.914Z,31.15
2018-11-27T09:57:58.822Z,31.40
2018-11-27T10:00:20.279Z,31.18
2018-11-27T10:02:46.932Z,31.40
2018-11-27T10:05:13.588Z,31.61
2018-11-27T10:07:40.369Z,31.59
2018-11-27T10:10:07.010Z,31.48
2018-11-27T10:12:33.718Z,31.35
2018-11-27T10:15:00.370Z,31.45
2018-11-27T10:17:27.033Z,31.30
2018-11-27T10:19:53.680Z,31.42
2018-11-27T10:22:20.345Z,31.24
2018-11-27T10:24:47.041Z,31.29
2018-11-27T10:27:13.763Z,31.30
2018-11-27T10:29:40.449Z,31.21
2018-11-27T10:32:07.062Z,31.30
2018-11-27T10:34:33.787Z,30.82
2018-11-27T10:37:00.478Z,31.25
2018-11-27T10:39:27.175Z,31.20
2018-11-27T10:41:54.050Z,31.30
2018-11-27T10:44:20.733Z,31.63
2018-11-27T10:46:47.504Z,31.81
2018-11-27T10:49:14.197Z,31.66
2018-11-27T10:51:40.916Z,31.47
2018-11-27T10:54:07.694Z,31.72
2018-11-27T10:56:34.377Z,31.94
2018-11-27T10:59:01.110Z,31.53
2018-11-27T11:01:27.916Z,31.75
2018-11-27T11:03:56.910Z,31.79
2018-11-27T11:06:24.580Z,31.93
2018-11-27T11:08:51.270Z,31.68
2018-11-27T11:11:18.013Z,31.63
2018-11-27T11:13:44.669Z,31.99
2018-11-27T11:16:11.306Z,31.74
2018-11-27T11:18:37.966Z,32.14
2018-11-27T11:21:04.670Z,32.14
2018-11-27T11:23:31.401Z,31.68
2018-11-27T11:25:58.492Z,32.07
2018-11-27T11:28:25.135Z,32.09
2018-11-27T11:30:51.851Z,32.06
2018-11-27T11:33:18.556Z,31.98
2018-11-27T11:35:45.263Z,31.81
2018-11-27T11:38:11.935Z,31.67
2018-11-27T11:40:38.590Z,31.72
2018-11-27T11:43:05.332Z,32.22
2018-11-27T11:45:31.981Z,32.12
2018-11-27T11:47:58.623Z,32.32
2018-11-27T11:50:25.295Z,32.28
2018-11-27T11:52:51.938Z,32.28
2018-11-27T11:55:18.637Z,32.58
2018-11-27T11:57:45.379Z,32.67
2018-11-27T12:00:12.033Z,32.54
2018-11-27T12:02:38.671Z,32.66
2018-11-27T12:05:05.410Z,32.57
2018-11-27T12:07:32.172Z,32.57
2018-11-27T12:09:58.879Z,32.56
2018-11-27T12:12:25.517Z,32.70
2018-11-27T12:14:52.199Z,32.68
2018-11-27T12:17:18.837Z,33.09
2018-11-27T12:19:45.576Z,32.95
2018-11-27T12:22:12.227Z,32.82
2018-11-27T12:24:38.953Z,32.93
2018-11-27T12:27:05.651Z,32.72
2018-11-27T12:29:32.504Z,32.56
2018-11-27T12:31:59.153Z,32.93
2018-11-27T12:34:25.879Z,32.68
2018-11-27T12:36:53.443Z,32.96
2018-11-27T12:39:20.117Z,32.84
2018-11-27T12:41:46.814Z,32.91
2018-11-27T12:44:13.629Z,32.77
2018-11-27T12:46:40.115Z,32.93
2018-11-27T12:49:06.765Z,32.50
2018-11-27T12:51:33.483Z,32.69
2018-11-27T12:54:00.131Z,32.58
2018-11-27T12:56:26.931Z,32.68
2018-11-27T12:58:53.669Z,32.33
2018-11-27T13:01:20.324Z,33.12
2018-11-27T13:03:46.972Z,33.16
2018-11-27T13:06:13.684Z,32.98
2018-11-27T13:08:40.388Z,33.01
2018-11-27T13:11:11.467Z,33.05
2018-11-27T13:13:33.823Z,32.99
2018-11-27T13:16:00.523Z,32.84
2018-11-27T13:18:27.193Z,32.78
2018-11-27T13:20:53.899Z,32.78
2018-11-27T13:23:20.536Z,32.95
2018-11-27T13:25:47.251Z,32.74
2018-11-27T13:28:14.037Z,32.48
2018-11-27T13:30:40.675Z,32.57
2018-11-27T13:33:07.370Z,32.45
2018-11-27T13:35:34.018Z,32.42
2018-11-27T13:38:00.688Z,32.58
2018-11-27T13:40:27.329Z,32.84
2018-11-27T13:42:53.979Z,32.80
2018-11-27T13:45:20.715Z,32.73
2018-11-27T13:47:47.373Z,32.88
2018-11-27T13:50:14.016Z,32.99
2018-11-27T13:52:40.661Z,32.99
2018-11-27T13:55:07.310Z,32.95
2018-11-27T13:57:33.963Z,33.12
2018-11-27T14:00:00.714Z,33.21
2018-11-27T14:02:29.599Z,33.08
2018-11-27T14:04:54.080Z,33.16
2018-11-27T14:07:20.716Z,33.13
2018-11-27T14:09:47.374Z,33.18
2018-11-27T14:12:14.031Z,33.16
2018-11-27T14:14:40.672Z,33.11
2018-11-27T14:17:07.303Z,32.99
2018-11-27T14:19:33.965Z,32.89
2018-11-27T14:22:00.619Z,33.08
2018-11-27T14:24:27.303Z,33.06
2018-11-27T14:26:54.052Z,33.04
2018-11-27T14:29:20.706Z,33.16
2018-11-27T14:31:47.343Z,33.11
2018-11-27T14:34:14.019Z,32.89
2018-11-27T14:36:41.082Z,33.01
2018-11-27T14:39:07.768Z,32.80
2018-11-27T14:41:34.466Z,32.99
2018-11-27T14:44:01.129Z,33.42
2018-11-27T14:46:27.835Z,33.12
2018-11-27T14:48:54.484Z,33.43
2018-11-27T14:51:21.307Z,33.57
2018-11-27T14:53:47.950Z,33.21
2018-11-27T14:56:14.639Z,33.21
2018-11-27T14:58:41.350Z,33.19
2018-11-27T15:01:08.396Z,32.98
2018-11-27T15:03:35.050Z,32.97
2018-11-27T15:06:01.701Z,32.85
2018-11-27T15:08:28.401Z,32.91
2018-11-27T15:10:55.066Z,32.87
2018-11-27T15:13:21.706Z,32.85
2018-11-27T15:15:48.413Z,32.85
2018-11-27T15:18:15.057Z,32.84
2018-11-27T15:20:41.750Z,32.82
2018-11-27T15:23:08.563Z,32.96
2018-11-27T15:25:35.228Z,32.94
2018-11-27T15:28:01.924Z,32.90
2018-11-27T15:30:28.582Z,32.84
2018-11-27T15:32:55.242Z,32.66
2018-11-27T15:35:21.887Z,32.71
2018-11-27T15:37:48.717Z,32.65
2018-11-27T15:40:15.373Z,32.53
2018-11-27T15:42:42.012Z,32.42
2018-11-27T15:45:08.723Z,32.45
2018-11-27T15:47:35.361Z,32.44
2018-11-27T15:50:02.090Z,32.37
2018-11-27T15:52:28.737Z,32.35
2018-11-27T15:54:55.424Z,32.28
2018-11-27T15:57:22.088Z,32.10
2018-11-27T15:59:48.770Z,32.20
2018-11-27T16:02:15.416Z,32.06
2018-11-27T16:04:42.059Z,32.16
2018-11-27T16:07:08.728Z,32.05
2018-11-27T16:09:35.422Z,32.10
2018-11-27T16:12:02.142Z,31.98
2018-11-27T16:14:28.784Z,32.10
2018-11-27T16:16:55.431Z,32.28
2018-11-27T16:19:22.090Z,31.98
2018-11-27T16:21:48.739Z,31.89
2018-11-27T16:24:15.391Z,31.83
2018-11-27T16:26:42.164Z,31.71
2018-11-27T16:29:08.827Z,31.86
2018-11-27T16:31:35.470Z,31.80
2018-11-27T16:34:02.158Z,31.73
2018-11-27T16:36:28.795Z,31.61
2018-11-27T16:38:55.449Z,31.65
2018-11-27T16:41:22.097Z,31.58
2018-11-27T16:43:48.797Z,31.79
2018-11-27T16:46:15.444Z,31.73
2018-11-27T16:48:42.101Z,31.55
2018-11-27T16:51:08.845Z,31.49
2018-11-27T16:53:35.551Z,31.61
2018-11-27T16:56:03.130Z,31.39
2018-11-27T16:58:28.839Z,31.37
2018-11-27T17:00:55.536Z,31.35
2018-11-27T17:03:22.190Z,31.28
2018-11-27T17:05:48.946Z,31.36
2018-11-27T17:08:15.585Z,31.25
2018-11-27T17:10:42.279Z,31.21
2018-11-27T17:13:08.954Z,31.35
2018-11-27T17:15:35.568Z,31.19
2018-11-27T17:18:02.271Z,31.18
2018-11-27T17:20:28.913Z,31.20
2018-11-27T17:22:55.553Z,31.18
2018-11-27T17:25:22.205Z,31.26
2018-11-27T17:27:48.852Z,31.17
2018-11-27T17:30:15.489Z,31.08
2018-11-27T17:32:42.150Z,31.02
2018-11-27T17:35:08.799Z,31.10
2018-11-27T17:37:35.539Z,31.10
2018-11-27T17:40:02.180Z,31.08
2018-11-27T17:42:28.883Z,31.20
2018-11-27T17:44:55.523Z,31.11
2018-11-27T17:47:22.169Z,31.14
2018-11-27T17:49:48.836Z,31.11
2018-11-27T17:52:15.719Z,31.06
2018-11-27T17:54:42.346Z,31.05
2018-11-27T17:57:08.990Z,31.03
2018-11-27T17:59:35.630Z,31.01
2018-11-27T18:02:02.284Z,30.92
2018-11-27T18:04:28.929Z,30.98
2018-11-27T18:06:55.569Z,30.99
2018-11-27T18:09:22.226Z,31.08
2018-11-27T18:11:48.865Z,30.95
2018-11-27T18:14:15.546Z,31.04
2018-11-27T18:16:42.190Z,30.95
2018-11-27T18:19:08.893Z,30.95
2018-11-27T18:21:35.602Z,30.88
2018-11-27T18:24:02.246Z,31.07
2018-11-27T18:26:28.943Z,31.12
2018-11-27T18:28:55.677Z,31.06
2018-11-27T18:31:22.299Z,31.03
2018-11-27T18:33:48.937Z,30.90
2018-11-27T18:36:15.625Z,30.93
2018-11-27T18:38:42.331Z,30.86
2018-11-27T18:41:08.978Z,30.95
2018-11-27T18:43:35.626Z,30.81
2018-11-27T18:46:02.286Z,30.92
2018-11-27T18:48:28.941Z,30.85
2018-11-27T18:50:55.670Z,30.85
2018-11-27T18:53:22.332Z,30.81
2018-11-27T18:55:48.975Z,30.79
2018-11-27T18:58:18.480Z,30.78
2018-11-27T19:00:45.171Z,30.74
2018-11-27T19:03:11.823Z,30.74
2018-11-27T19:05:38.469Z,30.76
2018-11-27T19:08:05.165Z,30.70
2018-11-27T19:10:31.867Z,30.67
2018-11-27T19:12:58.569Z,30.72
2018-11-27T19:15:25.210Z,30.60
2018-11-27T19:17:51.850Z,30.67
2018-11-27T19:20:18.511Z,30.58
2018-11-27T19:22:45.201Z,30.55
2018-11-27T19:25:11.842Z,30.52
2018-11-27T19:27:38.591Z,30.56
2018-11-27T19:30:05.229Z,30.45
2018-11-27T19:32:31.885Z,30.58
2018-11-27T19:34:58.529Z,30.43
2018-11-27T19:37:25.250Z,30.45
2018-11-27T19:39:51.874Z,30.38
2018-11-27T19:42:18.508Z,30.34
2018-11-27T19:44:45.200Z,30.27
2018-11-27T19:47:11.905Z,30.23
2018-11-27T19:49:38.580Z,30.09
2018-11-27T19:52:05.221Z,30.08
2018-11-27T19:54:31.913Z,29.98
2018-11-27T19:56:58.556Z,29.95
2018-11-27T19:59:25.197Z,30.00
2018-11-27T20:01:51.886Z,29.95
2018-11-27T20:04:19.321Z,29.91
2018-11-27T20:06:45.176Z,29.93
2018-11-27T20:09:11.822Z,29.93
2018-11-27T20:11:38.465Z,29.84
2018-11-27T20:14:05.101Z,29.89
2018-11-27T20:16:31.757Z,29.71
2018-11-27T20:18:58.397Z,29.68
2018-11-27T20:21:25.094Z,29.72
2018-11-27T20:23:51.794Z,29.80
2018-11-27T20:26:18.430Z,29.73
2018-11-27T20:28:45.086Z,29.69
2018-11-27T20:31:11.855Z,29.71
2018-11-27T20:33:38.495Z,29.61
2018-11-27T20:36:05.138Z,29.62
2018-11-27T20:38:31.799Z,29.57
2018-11-27T20:40:58.448Z,29.55
2018-11-27T20:43:25.097Z,29.54
2018-11-27T20:45:51.746Z,29.48
2018-11-27T20:48:18.522Z,29.47
2018-11-27T20:50:45.162Z,29.43
2018-11-27T20:53:11.839Z,29.44
2018-11-27T20:55:38.526Z,29.39
2018-11-27T20:58:05.185Z,29.34
2018-11-27T21:00:31.835Z,29.31
2018-11-27T21:02:58.479Z,29.20
2018-11-27T21:05:25.178Z,29.27
2018-11-27T21:07:51.805Z,29.29
2018-11-27T21:10:18.468Z,29.19
2018-11-27T21:12:45.118Z,29.18
2018-11-27T21:15:11.843Z,29.09
2018-11-27T21:17:38.479Z,29.02
2018-11-27T21:20:05.120Z,29.02
2018-11-27T21:22:31.785Z,29.04
2018-11-27T21:24:58.417Z,28.95
2018-11-27T21:27:25.066Z,28.90
2018-11-27T21:29:51.721Z,28.96
2018-11-27T21:32:18.379Z,28.94
2018-11-27T21:34:45.014Z,28.96
2018-11-27T21:37:11.664Z,28.94
2018-11-27T21:39:38.318Z,28.88
2018-11-27T21:42:05.059Z,28.89
2018-11-27T21:44:31.710Z,28.85
2018-11-27T21:46:58.349Z,28.90
2018-11-27T21:49:25.011Z,28.86
2018-11-27T21:51:51.916Z,28.87
2018-11-27T21:54:18.556Z,28.89
2018-11-27T21:56:45.293Z,28.87
2018-11-27T21:59:11.990Z,28.87
2018-11-27T22:01:38.639Z,28.84
2018-11-27T22:04:05.339Z,28.83
2018-11-27T22:06:32.029Z,28.80
2018-11-27T22:08:58.725Z,28.89
2018-11-27T22:11:25.378Z,28.92
2018-11-27T22:13:52.032Z,28.83
2018-11-27T22:16:18.669Z,28.81
2018-11-27T22:18:45.369Z,28.83
2018-11-27T22:21:12.080Z,28.81
2018-11-27T22:23:38.719Z,28.84
2018-11-27T22:26:05.357Z,28.82
2018-11-27T22:28:32.023Z,28.82
2018-11-27T22:30:58.730Z,28.83
2018-11-27T22:33:25.368Z,28.74
2018-11-27T22:35:52.024Z,28.82
2018-11-27T22:38:18.720Z,28.77
2018-11-27T22:40:45.793Z,28.75
2018-11-27T22:43:12.438Z,28.78
2018-11-27T22:45:39.090Z,28.99
2018-11-27T22:48:05.752Z,29.05
2018-11-27T22:50:32.554Z,29.32
2018-11-27T22:52:59.191Z,29.18
2018-11-27T22:55:25.829Z,28.92
2018-11-27T22:57:52.483Z,28.77
2018-11-27T23:00:19.132Z,28.68
2018-11-27T23:02:45.771Z,28.61
2018-11-27T23:05:12.408Z,28.52
2018-11-27T23:07:39.112Z,28.47
2018-11-27T23:10:05.751Z,28.45
2018-11-27T23:12:32.454Z,28.38
2018-11-27T23:14:59.097Z,28.34
2018-11-27T23:17:25.745Z,28.27
2018-11-27T23:19:52.442Z,28.25
2018-11-27T23:22:19.095Z,28.20
2018-11-27T23:24:45.786Z,28.14
2018-11-27T23:27:12.422Z,28.07
2018-11-27T23:29:39.057Z,28.08
2018-11-27T23:32:05.713Z,28.00
2018-11-27T23:34:32.350Z,27.98
2018-11-27T23:36:59.100Z,28.13
2018-11-27T23:39:25.737Z,27.89
2018-11-27T23:41:52.433Z,27.89
2018-11-27T23:44:19.092Z,27.93
2018-11-27T23:46:45.783Z,27.82
2018-11-27T23:49:12.461Z,27.79
2018-11-27T23:51:39.098Z,27.75
2018-11-27T23:54:05.750Z,27.69
2018-11-27T23:56:32.386Z,27.63
2018-11-27T23:58:59.072Z,27.74
